createdAt,value
2023-05-14T00:00:15.469Z,102093.69
2023-05-14T00:03:01.271Z,102091.34
2023-05-14T00:05:48.506Z,102086.44
2023-05-14T00:08:34.399Z,102084.97
2023-05-14T00:11:21.022Z,102083.56
2023-05-14T00:14:06.500Z,102085.47
2023-05-14T00:16:52.071Z,102079.59
2023-05-14T00:19:37.756Z,102066.53
2023-05-14T00:22:25.846Z,102061.38
2023-05-14T00:25:11.252Z,102048.31
2023-05-14T00:27:58.885Z,102053.63
2023-05-14T00:30:44.814Z,102046.69
2023-05-14T00:33:30.093Z,102040.53
2023-05-14T00:36:15.760Z,102037.06
2023-05-14T00:39:01.405Z,102034.41
2023-05-14T00:41:46.937Z,102026.38
2023-05-14T00:44:33.005Z,102027.09
2023-05-14T00:47:18.903Z,102024.41
2023-05-14T00:50:04.792Z,102017.53
2023-05-14T00:52:50.287Z,102017.53
2023-05-14T00:55:40.718Z,102010.56
2023-05-14T00:58:26.456Z,102003.59
2023-05-14T01:01:15.183Z,102001.84
2023-05-14T01:04:01.199Z,101999.22
2023-05-14T01:07:09.577Z,101997.50
2023-05-14T01:10:42.330Z,101988.94
2023-05-14T01:13:44.346Z,101996.00
2023-05-14T01:16:31.879Z,101980.34
2023-05-14T01:19:25.529Z,101970.84
2023-05-14T01:22:11.876Z,101975.19
2023-05-14T01:24:57.532Z,101973.56
2023-05-14T01:27:50.371Z,101963.97
2023-05-14T01:30:42.118Z,101962.25
2023-05-14T01:33:29.754Z,101953.47
2023-05-14T01:36:15.741Z,101949.09
2023-05-14T01:39:03.851Z,101948.19
2023-05-14T01:41:50.885Z,101947.28
2023-05-14T01:44:37.371Z,101944.63
2023-05-14T01:47:22.968Z,101939.34
2023-05-14T01:50:08.765Z,101935.84
2023-05-14T01:52:56.686Z,101935.81
2023-05-14T01:55:42.732Z,101941.88
2023-05-14T01:58:28.781Z,101933.09
2023-05-14T02:01:14.203Z,101940.91
2023-05-14T02:04:01.166Z,101940.91
2023-05-14T02:06:46.426Z,101935.69
2023-05-14T02:09:31.739Z,101943.47
2023-05-14T02:12:17.271Z,101938.28
2023-05-14T02:15:03.946Z,101934.78
2023-05-14T02:17:49.634Z,101928.63
2023-05-14T02:20:35.025Z,101930.34
2023-05-14T02:23:25.679Z,101927.69
2023-05-14T02:26:16.908Z,101927.59
2023-05-14T02:29:02.743Z,101924.91
2023-05-14T02:31:48.191Z,101928.22
2023-05-14T02:34:34.619Z,101917.56
2023-05-14T02:37:20.689Z,101913.84
2023-05-14T02:40:06.697Z,101927.53
2023-05-14T02:42:52.296Z,101917.78
2023-05-14T02:45:38.752Z,101923.63
2023-05-14T02:48:24.193Z,101921.75
2023-05-14T02:51:10.782Z,101924.19
2023-05-14T02:53:56.486Z,101914.47
2023-05-14T02:56:41.819Z,101907.31
2023-05-14T02:59:27.682Z,101908.88
2023-05-14T03:02:13.642Z,101917.44
2023-05-14T03:04:59.247Z,101911.25
2023-05-14T03:07:44.966Z,101917.25
2023-05-14T03:10:33.459Z,101912.78
2023-05-14T03:13:20.762Z,101918.88
2023-05-14T03:16:06.470Z,101916.13
2023-05-14T03:18:52.174Z,101911.69
2023-05-14T03:21:37.729Z,101915.03
2023-05-14T03:24:23.247Z,101914.03
2023-05-14T03:27:11.147Z,101914.84
2023-05-14T03:29:56.601Z,101910.34
2023-05-14T03:32:42.994Z,101912.81
2023-05-14T03:35:28.582Z,101914.44
2023-05-14T03:38:14.125Z,101907.38
2023-05-14T03:40:59.665Z,101909.13
2023-05-14T03:43:48.087Z,101909.16
2023-05-14T03:46:33.626Z,101906.69
2023-05-14T03:49:19.221Z,101905.81
2023-05-14T03:52:05.027Z,101902.41
2023-05-14T03:54:50.884Z,101887.63
2023-05-14T03:57:36.921Z,101896.38
2023-05-14T04:00:22.699Z,101899.97
2023-05-14T04:03:10.451Z,101895.75
2023-05-14T04:05:55.789Z,101891.38
2023-05-14T04:08:41.820Z,101887.97
2023-05-14T04:11:27.447Z,101882.78
2023-05-14T04:14:13.008Z,101881.94
2023-05-14T04:17:00.215Z,101887.09
2023-05-14T04:19:48.875Z,101874.25
2023-05-14T04:22:34.492Z,101877.03
2023-05-14T04:25:20.159Z,101874.50
2023-05-14T04:28:06.045Z,101879.75
2023-05-14T04:30:51.984Z,101869.38
2023-05-14T04:33:40.605Z,101865.97
2023-05-14T04:36:25.956Z,101863.38
2023-05-14T04:39:12.523Z,101871.19
2023-05-14T04:41:58.216Z,101865.22
2023-05-14T04:44:43.575Z,101861.00
2023-05-14T04:47:29.709Z,101865.41
2023-05-14T04:50:15.960Z,101860.19
2023-05-14T04:53:01.320Z,101863.75
2023-05-14T04:55:46.613Z,101862.16
2023-05-14T04:58:34.484Z,101849.16
2023-05-14T05:01:21.042Z,101864.03
2023-05-14T05:04:06.422Z,101855.38
2023-05-14T05:06:51.554Z,101860.72
2023-05-14T05:09:36.975Z,101843.47
2023-05-14T05:12:22.995Z,101851.38
2023-05-14T05:15:09.759Z,101860.19
2023-05-14T05:17:55.065Z,101856.81
2023-05-14T05:20:40.576Z,101852.63
2023-05-14T05:23:26.192Z,101852.72
2023-05-14T05:26:11.539Z,101851.06
2023-05-14T05:28:56.985Z,101842.44
2023-05-14T05:31:42.315Z,101843.44
2023-05-14T05:34:27.921Z,101842.69
2023-05-14T05:37:15.019Z,101836.69
2023-05-14T05:40:00.278Z,101828.03
2023-05-14T05:42:45.741Z,101836.78
2023-05-14T05:45:31.196Z,101829.03
2023-05-14T05:48:17.107Z,101821.31
2023-05-14T05:51:02.771Z,101822.28
2023-05-14T05:53:48.105Z,101824.97
2023-05-14T05:56:33.489Z,101825.09
2023-05-14T05:59:18.965Z,101818.22
2023-05-14T06:02:04.716Z,101817.44
2023-05-14T06:04:50.384Z,101810.56
2023-05-14T06:07:36.003Z,101804.53
2023-05-14T06:10:22.113Z,101805.47
2023-05-14T06:13:08.072Z,101814.25
2023-05-14T06:15:53.535Z,101808.22
2023-05-14T06:18:38.983Z,101814.34
2023-05-14T06:21:25.171Z,101826.59
2023-05-14T06:24:11.156Z,101825.75
2023-05-14T06:26:56.678Z,101820.56
2023-05-14T06:29:42.181Z,101818.00
2023-05-14T06:32:27.679Z,101812.81
2023-05-14T06:35:12.928Z,101810.25
2023-05-14T06:37:58.397Z,101813.81
2023-05-14T06:40:43.821Z,101813.88
2023-05-14T06:43:29.367Z,101801.72
2023-05-14T06:46:15.391Z,101800.03
2023-05-14T06:49:01.117Z,101803.59
2023-05-14T06:51:46.317Z,101797.59
2023-05-14T06:54:31.874Z,101795.97
2023-05-14T06:57:17.435Z,101789.13
2023-05-14T07:00:03.776Z,101786.63
2023-05-14T07:02:49.742Z,101778.06
2023-05-14T07:05:35.036Z,101779.00
2023-05-14T07:08:20.717Z,101763.38
2023-05-14T07:11:06.154Z,101759.03
2023-05-14T07:13:51.451Z,101755.56
2023-05-14T07:16:37.175Z,101744.25
2023-05-14T07:19:22.768Z,101746.91
2023-05-14T07:22:08.472Z,101746.91
2023-05-14T07:24:53.960Z,101739.97
2023-05-14T07:27:39.326Z,101743.47
2023-05-14T07:30:25.103Z,101753.13
2023-05-14T07:33:11.001Z,101750.56
2023-05-14T07:35:56.417Z,101732.22
2023-05-14T07:38:41.962Z,101732.22
2023-05-14T07:41:27.633Z,101733.94
2023-05-14T07:44:13.173Z,101727.88
2023-05-14T07:46:58.887Z,101727.88
2023-05-14T07:49:44.174Z,101727.03
2023-05-14T07:52:29.437Z,101730.56
2023-05-14T07:55:14.925Z,101727.97
2023-05-14T07:58:00.472Z,101728.88
2023-05-14T08:00:46.198Z,101726.31
2023-05-14T08:03:31.660Z,101726.38
2023-05-14T08:06:17.414Z,101716.81
2023-05-14T08:09:05.423Z,101719.44
2023-05-14T08:11:50.849Z,101709.81
2023-05-14T08:14:36.467Z,101721.16
2023-05-14T08:17:22.139Z,101707.22
2023-05-14T08:20:09.128Z,101702.81
2023-05-14T08:22:54.693Z,101699.31
2023-05-14T08:25:40.066Z,101698.44
2023-05-14T08:28:25.473Z,101705.44
2023-05-14T08:31:11.012Z,101699.28
2023-05-14T08:33:56.586Z,101701.84
2023-05-14T08:36:42.252Z,101697.44
2023-05-14T08:39:27.591Z,101695.72
2023-05-14T08:42:13.966Z,101693.13
2023-05-14T08:45:04.079Z,101695.75
2023-05-14T08:47:51.560Z,101698.34
2023-05-14T08:50:37.627Z,101692.22
2023-05-14T08:53:23.529Z,101695.72
2023-05-14T08:56:10.179Z,101696.63
2023-05-14T08:58:55.617Z,101699.25
2023-05-14T09:01:51.588Z,101700.16
2023-05-14T09:04:37.545Z,101713.31
2023-05-14T09:07:23.976Z,101714.19
2023-05-14T09:10:10.263Z,101706.31
2023-05-14T09:12:56.088Z,101713.31
2023-05-14T09:15:41.682Z,101718.56
2023-05-14T09:18:27.291Z,101714.19
2023-05-14T09:21:15.094Z,101721.16
2023-05-14T09:24:01.107Z,101722.06
2023-05-14T09:26:50.713Z,101719.44
2023-05-14T09:29:37.238Z,101713.28
2023-05-14T09:32:22.520Z,101715.91
2023-05-14T09:35:11.913Z,101722.91
2023-05-14T09:37:57.341Z,101726.31
2023-05-14T09:40:43.091Z,101728.09
2023-05-14T09:43:28.439Z,101732.50
2023-05-14T09:46:13.802Z,101740.41
2023-05-14T09:48:59.406Z,101731.69
2023-05-14T09:51:45.300Z,101745.66
2023-05-14T09:54:33.301Z,101737.81
2023-05-14T09:57:18.844Z,101724.69
2023-05-14T10:00:04.968Z,101722.03
2023-05-14T10:02:53.312Z,101721.97
2023-05-14T10:05:41.127Z,101706.16
2023-05-14T10:08:36.582Z,101715.78
2023-05-14T10:11:26.255Z,101700.06
2023-05-14T10:14:32.819Z,101710.63
2023-05-14T10:17:21.467Z,101708.03
2023-05-14T10:20:10.253Z,101705.44
2023-05-14T10:22:56.566Z,101713.28
2023-05-14T10:25:42.509Z,101710.63
2023-05-14T10:28:28.604Z,101706.25
2023-05-14T10:31:14.045Z,101707.13
2023-05-14T10:33:59.921Z,101708.03
2023-05-14T10:36:45.851Z,101708.06
2023-05-14T10:39:57.769Z,101715.06
2023-05-14T10:42:44.054Z,101715.94
2023-05-14T10:45:30.550Z,101723.81
2023-05-14T10:48:16.322Z,101720.31
2023-05-14T10:51:02.959Z,101716.81
2023-05-14T10:53:49.352Z,101721.19
2023-05-14T10:56:34.610Z,101718.56
2023-05-14T10:59:19.980Z,101716.81
2023-05-14T11:02:05.984Z,101710.69
2023-05-14T11:05:16.938Z,101718.53
2023-05-14T11:08:06.139Z,101709.81
2023-05-14T11:10:52.421Z,101721.19
2023-05-14T11:13:38.806Z,101720.31
2023-05-14T11:16:26.505Z,101715.91
2023-05-14T11:19:11.930Z,101706.25
2023-05-14T11:21:57.234Z,101694.81
2023-05-14T11:24:42.646Z,101699.06
2023-05-14T11:27:28.304Z,101686.78
2023-05-14T11:30:18.512Z,101693.91
2023-05-14T11:33:04.332Z,101715.06
2023-05-14T11:35:51.985Z,101735.75
2023-05-14T11:38:51.599Z,101754.72
2023-05-14T11:41:37.143Z,101772.03
2023-05-14T11:44:22.830Z,101773.53
2023-05-14T11:47:08.400Z,101785.69
2023-05-14T11:49:54.086Z,101781.34
2023-05-14T11:52:42.591Z,101784.94
2023-05-14T11:55:28.073Z,101787.72
2023-05-14T11:58:14.184Z,101788.63
2023-05-14T12:00:59.948Z,101785.28
2023-05-14T12:03:45.612Z,101774.03
2023-05-14T12:06:32.502Z,101771.44
2023-05-14T12:09:20.018Z,101769.63
2023-05-14T12:12:12.886Z,101767.69
2023-05-14T12:14:59.930Z,101781.72
2023-05-14T12:17:52.051Z,101773.06
2023-05-14T12:20:37.825Z,101777.66
2023-05-14T12:23:28.919Z,101746.38
2023-05-14T12:26:14.418Z,101735.13
2023-05-14T12:29:01.885Z,101737.81
2023-05-14T12:31:48.674Z,101726.38
2023-05-14T12:34:35.964Z,101726.38
2023-05-14T12:37:22.862Z,101727.28
2023-05-14T12:40:11.652Z,101730.81
2023-05-14T12:42:57.412Z,101737.66
2023-05-14T12:45:42.889Z,101760.25
2023-05-14T12:48:28.432Z,101762.72
2023-05-14T12:51:13.847Z,101762.56
2023-05-14T12:53:59.182Z,101761.56
2023-05-14T12:56:44.469Z,101765.03
2023-05-14T12:59:30.056Z,101757.31
2023-05-14T13:02:17.466Z,101767.97
2023-05-14T13:05:03.810Z,101748.94
2023-05-14T13:07:49.266Z,101743.00
2023-05-14T13:10:34.631Z,101735.94
2023-05-14T13:13:20.272Z,101731.50
2023-05-14T13:16:05.913Z,101741.13
2023-05-14T13:18:51.448Z,101733.22
2023-05-14T13:21:36.702Z,101736.66
2023-05-14T13:24:22.163Z,101733.16
2023-05-14T13:27:07.586Z,101741.06
2023-05-14T13:29:52.996Z,101729.72
2023-05-14T13:32:39.270Z,101734.97
2023-05-14T13:35:25.763Z,101727.19
2023-05-14T13:38:11.308Z,101731.50
2023-05-14T13:41:02.793Z,101732.38
2023-05-14T13:43:48.412Z,101730.66
2023-05-14T13:46:34.024Z,101739.44
2023-05-14T13:49:19.684Z,101731.69
2023-05-14T13:52:05.670Z,101728.19
2023-05-14T13:54:51.346Z,101723.78
2023-05-14T13:57:36.721Z,101716.66
2023-05-14T14:00:22.452Z,101722.63
2023-05-14T14:03:08.280Z,101716.44
2023-05-14T14:05:53.632Z,101718.25
2023-05-14T14:08:39.018Z,101718.25
2023-05-14T14:11:24.371Z,101715.72
2023-05-14T14:14:09.580Z,101713.06
2023-05-14T14:16:54.964Z,101715.66
2023-05-14T14:19:40.471Z,101706.78
2023-05-14T14:22:28.115Z,101711.88
2023-05-14T14:25:14.449Z,101702.94
2023-05-14T14:28:00.115Z,101697.31
2023-05-14T14:30:45.520Z,101698.69
2023-05-14T14:33:30.657Z,101697.28
2023-05-14T14:36:16.269Z,101696.09
2023-05-14T14:39:01.488Z,101700.66
2023-05-14T14:41:47.810Z,101705.28
2023-05-14T14:44:33.218Z,101707.38
2023-05-14T14:47:18.538Z,101698.84
2023-05-14T14:50:04.525Z,101690.09
2023-05-14T14:52:49.729Z,101691.78
2023-05-14T14:55:35.138Z,101684.97
2023-05-14T14:58:21.328Z,101686.56
2023-05-14T15:01:07.215Z,101684.41
2023-05-14T15:03:52.860Z,101697.31
2023-05-14T15:06:38.165Z,101693.34
2023-05-14T15:09:23.482Z,101691.91
2023-05-14T15:12:10.247Z,101693.81
2023-05-14T15:14:55.838Z,101700.91
2023-05-14T15:17:41.470Z,101695.66
2023-05-14T15:20:26.721Z,101697.38
2023-05-14T15:23:12.351Z,101694.78
2023-05-14T15:25:58.010Z,101701.78
2023-05-14T15:28:43.748Z,101692.19
2023-05-14T15:31:29.172Z,101698.25
2023-05-14T15:34:14.438Z,101688.50
2023-05-14T15:36:59.951Z,101689.31
2023-05-14T15:39:45.454Z,101684.97
2023-05-14T15:42:31.182Z,101687.59
2023-05-14T15:45:17.073Z,101689.31
2023-05-14T15:48:02.496Z,101682.38
2023-05-14T15:50:49.670Z,101680.56
2023-05-14T15:53:35.618Z,101683.94
2023-05-14T15:56:22.928Z,101686.53
2023-05-14T15:59:08.337Z,101682.91
2023-05-14T16:01:53.695Z,101688.13
2023-05-14T16:04:39.187Z,101684.66
2023-05-14T16:07:24.745Z,101688.88
2023-05-14T16:10:10.458Z,101681.69
2023-05-14T16:12:56.038Z,101680.75
2023-05-14T16:15:41.644Z,101690.53
2023-05-14T16:18:26.879Z,101688.53
2023-05-14T16:21:12.398Z,101692.97
2023-05-14T16:23:57.729Z,101680.72
2023-05-14T16:26:43.270Z,101691.13
2023-05-14T16:29:28.909Z,101687.69
2023-05-14T16:32:14.314Z,101695.75
2023-05-14T16:35:01.826Z,101696.03
2023-05-14T16:37:47.058Z,101692.66
2023-05-14T16:40:32.410Z,101702.53
2023-05-14T16:43:17.926Z,101703.41
2023-05-14T16:46:03.308Z,101707.81
2023-05-14T16:48:50.697Z,101717.47
2023-05-14T16:51:37.365Z,101713.19
2023-05-14T16:54:22.680Z,101712.31
2023-05-14T16:57:08.036Z,101721.94
2023-05-14T16:59:53.608Z,101721.13
2023-05-14T17:02:39.508Z,101727.25
2023-05-14T17:05:25.366Z,101726.41
2023-05-14T17:08:11.374Z,101726.41
2023-05-14T17:10:56.818Z,101730.81
2023-05-14T17:13:42.441Z,101743.94
2023-05-14T17:16:28.299Z,101740.41
2023-05-14T17:19:13.742Z,101734.28
2023-05-14T17:21:59.473Z,101733.41
2023-05-14T17:24:45.120Z,101748.25
2023-05-14T17:27:33.304Z,101743.81
2023-05-14T17:30:18.571Z,101740.34
2023-05-14T17:33:04.238Z,101748.19
2023-05-14T17:35:49.691Z,101756.06
2023-05-14T17:38:35.287Z,101753.41
2023-05-14T17:41:21.634Z,101750.75
2023-05-14T17:44:07.299Z,101752.47
2023-05-14T17:46:52.698Z,101754.22
2023-05-14T17:49:38.531Z,101754.22
2023-05-14T17:52:23.982Z,101762.94
2023-05-14T17:55:09.998Z,101762.06
2023-05-14T17:57:55.328Z,101762.03
2023-05-14T18:00:41.177Z,101764.63
2023-05-14T18:03:26.977Z,101765.50
2023-05-14T18:06:12.459Z,101771.66
2023-05-14T18:08:57.899Z,101772.50
2023-05-14T18:11:43.279Z,101773.41
2023-05-14T18:14:28.961Z,101771.63
2023-05-14T18:17:14.262Z,101774.25
2023-05-14T18:20:00.274Z,101780.34
2023-05-14T18:22:45.904Z,101789.06
2023-05-14T18:25:31.255Z,101785.56
2023-05-14T18:28:16.913Z,101788.19
2023-05-14T18:31:04.173Z,101790.75
2023-05-14T18:33:49.735Z,101796.88
2023-05-14T18:36:35.012Z,101799.41
2023-05-14T18:39:20.356Z,101806.38
2023-05-14T18:42:06.182Z,101812.44
2023-05-14T18:44:51.731Z,101813.28
2023-05-14T18:47:37.398Z,101813.19
2023-05-14T18:50:23.154Z,101811.47
2023-05-14T18:53:08.547Z,101822.81
2023-05-14T18:55:54.158Z,101812.28
2023-05-14T18:58:39.354Z,101812.25
2023-05-14T19:01:25.756Z,101821.78
2023-05-14T19:04:11.752Z,101819.13
2023-05-14T19:06:57.140Z,101821.72
2023-05-14T19:09:42.800Z,101819.97
2023-05-14T19:12:28.037Z,101819.94
2023-05-14T19:15:13.694Z,101831.25
2023-05-14T19:17:59.636Z,101823.38
2023-05-14T19:20:46.684Z,101832.88
2023-05-14T19:23:32.844Z,101838.88
2023-05-14T19:26:18.418Z,101844.91
2023-05-14T19:29:03.879Z,101850.09
2023-05-14T19:31:50.132Z,101850.94
2023-05-14T19:34:35.802Z,101855.19
2023-05-14T19:37:21.406Z,101860.34
2023-05-14T19:40:07.523Z,101855.97
2023-05-14T19:42:53.180Z,101855.91
2023-05-14T19:45:39.427Z,101858.44
2023-05-14T19:48:24.998Z,101868.91
2023-05-14T19:51:11.061Z,101865.31
2023-05-14T19:53:56.761Z,101874.00
2023-05-14T19:56:42.295Z,101869.56
2023-05-14T19:59:29.498Z,101873.91
2023-05-14T20:02:18.334Z,101879.06
2023-05-14T20:05:06.792Z,101876.41
2023-05-14T20:07:54.674Z,101878.91
2023-05-14T20:10:41.511Z,101884.91
2023-05-14T20:13:27.304Z,101890.03
2023-05-14T20:16:16.715Z,101896.84
2023-05-14T20:19:02.678Z,101894.13
2023-05-14T20:21:48.630Z,101901.00
2023-05-14T20:24:34.127Z,101906.09
2023-05-14T20:27:19.543Z,101901.53
2023-05-14T20:30:07.499Z,101913.56
2023-05-14T20:32:52.952Z,101916.84
2023-05-14T20:35:38.610Z,101917.50
2023-05-14T20:38:25.699Z,101915.53
2023-05-14T20:41:10.993Z,101916.16
2023-05-14T20:43:56.434Z,101919.44
2023-05-14T20:46:41.738Z,101927.25
2023-05-14T20:49:27.025Z,101926.19
2023-05-14T20:52:13.453Z,101925.09
2023-05-14T20:55:01.396Z,101926.78
2023-05-14T20:57:47.405Z,101923.97
2023-05-14T21:00:33.146Z,101935.00
2023-05-14T21:03:18.652Z,101928.88
2023-05-14T21:06:05.228Z,101942.69
2023-05-14T21:08:50.681Z,101948.72
2023-05-14T21:11:36.479Z,101953.09
2023-05-14T21:14:21.923Z,101958.19
2023-05-14T21:17:07.754Z,101951.19
2023-05-14T21:19:53.101Z,101956.25
2023-05-14T21:22:38.279Z,101955.34
2023-05-14T21:25:23.853Z,101958.69
2023-05-14T21:28:09.572Z,101971.59
2023-05-14T21:30:54.982Z,101975.75
2023-05-14T21:33:41.038Z,101973.78
2023-05-14T21:36:26.664Z,101982.28
2023-05-14T21:39:12.380Z,101987.28
2023-05-14T21:41:57.560Z,101986.31
2023-05-14T21:44:42.779Z,101985.22
2023-05-14T21:47:28.550Z,101980.66
2023-05-14T21:50:13.934Z,101985.69
2023-05-14T21:52:59.264Z,101992.50
2023-05-14T21:55:44.617Z,101995.03
2023-05-14T21:58:29.947Z,101992.34
2023-05-14T22:01:15.648Z,101996.56
2023-05-14T22:04:00.835Z,101997.25
2023-05-14T22:06:46.598Z,102001.47
2023-05-14T22:09:32.321Z,102000.44
2023-05-14T22:12:17.581Z,102002.97
2023-05-14T22:15:03.883Z,101998.53
2023-05-14T22:17:49.684Z,101999.31
2023-05-14T22:20:35.327Z,102006.09
2023-05-14T22:23:20.882Z,102009.47
2023-05-14T22:26:06.311Z,102004.16
2023-05-14T22:28:52.661Z,102008.38
2023-05-14T22:31:38.144Z,102010.00
2023-05-14T22:34:23.448Z,102014.25
2023-05-14T22:37:09.020Z,102017.63
2023-05-14T22:39:54.572Z,102013.91
2023-05-14T22:42:39.808Z,102022.56
2023-05-14T22:45:25.430Z,102023.53
2023-05-14T22:48:11.153Z,102024.34
2023-05-14T22:50:56.839Z,102024.13
2023-05-14T22:53:42.269Z,102021.31
2023-05-14T22:56:28.231Z,102019.41
2023-05-14T22:59:13.462Z,102020.09
2023-05-14T23:01:58.924Z,102024.38
2023-05-14T23:04:44.176Z,102025.03
2023-05-14T23:07:29.598Z,102020.50
2023-05-14T23:10:15.301Z,102028.16
2023-05-14T23:13:00.856Z,102030.53
2023-05-14T23:15:46.559Z,102031.94
2023-05-14T23:18:32.192Z,102035.09
2023-05-14T23:21:17.675Z,102038.44
2023-05-14T23:24:02.960Z,102036.56
2023-05-14T23:26:48.320Z,102034.59
2023-05-14T23:29:33.631Z,102031.75
2023-05-14T23:32:18.937Z,102039.44
2023-05-14T23:35:04.989Z,102036.59
2023-05-14T23:37:51.240Z,102032.13
2023-05-14T23:40:36.535Z,102037.97
2023-05-14T23:43:21.850Z,102039.59
2023-05-14T23:46:08.240Z,102039.44
2023-05-14T23:48:57.100Z,102041.88
2023-05-14T23:51:42.619Z,102047.84
2023-05-14T23:54:28.006Z,102046.81
2023-05-14T23:57:14.650Z,102041.44
